Time;durP1;ratioP1;P1;durP2;ratioP2;P2;SDS_P1;SDS_P2;PMS_P1;PMS_P2;Temp;Humidity;BMP_temperature;BMP_pressure;BME280_temperature;BME280_humidity;BME280_pressure;Samples;Min_cycle;Max_cycle;Signal;HPM_P1;HPM_P2
2022/07/10 00:01:00;;;;;;;14.73;8.45;;;;;;;29.47;66.84;99736.83;1681542;84;21061;-70
2022/07/10 00:03:28;;;;;;;11.40;8.73;;;;;;;30.13;66.05;99736.50;1691568;84;21013;-71
2022/07/10 00:05:56;;;;;;;13.03;9.13;;;;;;;29.40;67.33;99740.00;1683041;84;21028;-71
2022/07/10 00:08:24;;;;;;;14.47;9.15;;;;;;;29.16;68.33;99728.56;1680514;84;21500;-70
2022/07/10 00:10:51;;;;;;;13.28;8.78;;;;;;;29.26;68.41;99733.92;1682925;84;21051;-70
2022/07/10 00:13:18;;;;;;;14.38;8.80;;;;;;;29.33;68.29;99731.56;1689789;84;21101;-70
2022/07/10 00:15:45;;;;;;;12.73;8.53;;;;;;;29.48;67.99;99739.27;1698682;83;21515;-70
2022/07/10 00:18:12;;;;;;;13.38;8.30;;;;;;;29.36;68.39;99738.30;1704582;83;21037;-71
2022/07/10 00:20:40;;;;;;;12.55;8.48;;;;;;;29.30;68.65;99741.27;1696027;83;21052;-70
2022/07/10 00:23:08;;;;;;;10.68;8.03;;;;;;;29.23;68.78;99732.51;1683094;84;21026;-70
2022/07/10 00:25:36;;;;;;;9.75;7.60;;;;;;;29.24;68.76;99728.02;1690231;84;21183;-70
2022/07/10 00:28:04;;;;;;;9.60;8.23;;;;;;;29.10;69.22;99727.23;1690357;84;21072;-71
2022/07/10 00:30:32;;;;;;;11.53;8.18;;;;;;;29.27;68.92;99731.07;1693780;82;21071;-70
2022/07/10 00:33:00;;;;;;;10.75;8.00;;;;;;;29.33;68.85;99730.23;1692044;82;21099;-71
2022/07/10 00:35:27;;;;;;;11.90;8.00;;;;;;;29.42;68.49;99737.95;1691311;84;21096;-70
2022/07/10 00:37:55;;;;;;;14.28;8.18;;;;;;;29.40;68.39;99744.81;1697904;84;21016;-71
2022/07/10 00:40:22;;;;;;;9.53;8.13;;;;;;;29.39;68.36;99744.50;1694152;83;21100;-71
2022/07/10 00:42:49;;;;;;;12.78;8.23;;;;;;;29.35;68.51;99736.66;1685119;84;21059;-71
2022/07/10 00:45:17;;;;;;;9.75;7.97;;;;;;;29.15;69.64;99736.72;1710150;83;21100;-71
2022/07/10 00:47:44;;;;;;;13.95;8.13;;;;;;;29.15;69.77;99742.02;1699334;82;21052;-70
2022/07/10 00:50:12;;;;;;;10.53;8.40;;;;;;;29.14;69.67;99747.03;1715665;83;21218;-71
2022/07/10 00:52:40;;;;;;;12.73;7.92;;;;;;;29.00;69.91;99733.48;1690538;83;21525;-70
2022/07/10 00:55:09;;;;;;;9.00;7.75;;;;;;;28.92;70.62;99727.88;1694900;83;21004;-71
2022/07/10 00:57:41;;;;;;;10.63;8.13;;;;;;;28.83;71.20;99724.61;1689595;84;21565;-70
2022/07/10 01:00:11;;;;;;;9.65;8.28;;;;;;;28.95;70.48;99726.97;1709485;83;21146;-71
2022/07/10 01:02:42;;;;;;;11.18;8.43;;;;;;;28.91;70.62;99723.10;1709693;83;21595;-71
2022/07/10 01:05:10;;;;;;;10.82;7.87;;;;;;;29.08;70.24;99721.33;1692577;84;21037;-72
2022/07/10 01:07:37;;;;;;;14.63;8.68;;;;;;;28.83;71.05;99715.34;1680782;84;21521;-71
2022/07/10 01:10:07;;;;;;;13.68;8.30;;;;;;;29.05;70.92;99727.03;1645881;86;21069;-71
2022/07/10 01:12:36;;;;;;;10.45;7.90;;;;;;;27.27;77.65;99716.77;1643501;87;21129;-71
2022/07/10 01:15:05;;;;;;;13.72;8.10;;;;;;;28.59;74.19;99709.37;1643379;87;21136;-71
2022/07/10 01:17:32;;;;;;;8.98;7.95;;;;;;;28.38;74.77;99709.34;1679680;84;21127;-71
2022/07/10 01:20:09;;;;;;;12.85;8.68;;;;;;;28.68;73.13;99714.77;1683374;84;21080;-71
2022/07/10 01:22:38;;;;;;;13.28;8.45;;;;;;;28.66;73.27;99718.94;1682411;83;21123;-71
2022/07/10 01:25:07;;;;;;;11.45;8.33;;;;;;;28.64;73.62;99717.01;1680082;83;21112;-71
2022/07/10 01:27:34;;;;;;;11.38;8.15;;;;;;;28.92;72.92;99708.01;1681772;84;21525;-71
2022/07/10 01:30:02;;;;;;;14.00;8.78;;;;;;;28.90;72.73;99706.88;1681198;84;21108;-71
2022/07/10 01:32:40;;;;;;;10.80;8.50;;;;;;;29.05;72.31;99707.96;1683112;84;21075;-72
2022/07/10 01:35:09;;;;;;;14.38;9.05;;;;;;;28.99;72.34;99709.31;1683218;84;21056;-71
2022/07/10 01:37:38;;;;;;;13.90;8.58;;;;;;;28.92;72.36;99702.20;1677672;84;21092;-71
2022/07/10 01:40:07;;;;;;;11.68;8.53;;;;;;;28.64;73.04;99700.31;1688661;84;21642;-71
2022/07/10 01:42:37;;;;;;;10.82;8.55;;;;;;;28.39;74.71;99690.33;1685883;84;21162;-71
2022/07/10 01:45:09;;;;;;;10.93;8.40;;;;;;;28.46;74.88;99697.73;1716094;81;21508;-71
2022/07/10 01:47:36;;;;;;;11.03;8.55;;;;;;;28.43;74.94;99696.84;1699915;82;21048;-71
2022/07/10 01:50:05;;;;;;;13.43;8.65;;;;;;;28.27;75.63;99701.22;1681777;84;21529;-71
2022/07/10 01:52:34;;;;;;;13.38;8.63;;;;;;;28.37;75.48;99695.81;1678947;84;21063;-71
2022/07/10 01:55:03;;;;;;;12.30;8.60;;;;;;;28.43;75.74;99696.00;1636218;86;21743;-71
2022/07/10 01:57:50;;;;;;;11.00;8.63;;;;;;;29.03;73.66;99692.78;1681589;85;21605;-70
2022/07/10 02:00:17;;;;;;;13.18;8.88;;;;;;;28.34;76.08;99684.81;1648319;86;21085;-70
2022/07/10 02:04:40;;;;;;;13.15;9.35;;;;;;;28.47;74.95;99687.47;1652282;86;21084;-70
2022/07/10 02:05:13;;;;;;;14.55;10.50;;;;;;;28.34;75.58;99688.78;1641709;86;21098;-70
2022/07/10 02:07:40;;;;;;;15.75;10.82;;;;;;;28.49;76.93;99680.66;1655511;86;21160;-70
2022/07/10 02:10:09;;;;;;;12.80;10.53;;;;;;;28.78;75.56;99679.41;1697207;83;21078;-70
2022/07/10 02:12:36;;;;;;;13.75;10.63;;;;;;;28.98;73.99;99686.50;1686915;83;21084;-70
2022/07/10 02:15:05;;;;;;;16.40;11.53;;;;;;;28.33;75.93;99685.84;1682406;84;21063;-70
2022/07/10 02:17:32;;;;;;;15.83;12.00;;;;;;;28.26;76.80;99679.72;1684563;84;21044;-69
2022/07/10 02:20:00;;;;;;;19.77;13.10;;;;;;;28.88;74.80;99682.95;1686739;83;21047;-70
2022/07/10 02:22:27;;;;;;;18.65;12.73;;;;;;;28.19;76.42;99683.70;1682664;84;21110;-69
2022/07/10 02:24:54;;;;;;;20.68;12.70;;;;;;;28.11;78.07;99678.61;1677175;84;21114;-70
2022/07/10 02:27:22;;;;;;;18.67;12.82;;;;;;;28.61;76.86;99677.71;1652200;86;21051;-70
2022/07/10 02:29:50;;;;;;;15.93;12.63;;;;;;;28.70;76.27;99673.00;1654875;85;21066;-70
2022/07/10 02:32:18;;;;;;;16.65;11.63;;;;;;;28.69;76.04;99674.84;1659194;85;21161;-70
2022/07/10 02:34:45;;;;;;;15.95;11.05;;;;;;;28.74;76.09;99671.05;1656991;85;21364;-70
2022/07/10 02:37:12;;;;;;;16.45;11.50;;;;;;;28.72;76.08;99664.34;1655435;86;21049;-70
2022/07/10 02:39:40;;;;;;;14.03;10.85;;;;;;;28.02;77.32;99664.77;1652376;85;21126;-70
2022/07/10 02:42:08;;;;;;;14.73;9.60;;;;;;;28.63;77.11;99663.75;1655341;85;21596;-70
2022/07/10 02:44:35;;;;;;;11.88;10.00;;;;;;;28.61;76.67;99667.61;1658371;85;21052;-71
2022/07/10 02:47:04;;;;;;;12.23;9.48;;;;;;;28.92;76.27;99670.41;1655063;85;21542;-70
2022/07/10 02:49:31;;;;;;;14.90;9.55;;;;;;;29.12;75.65;99662.95;1653603;85;21129;-71
2022/07/10 02:51:58;;;;;;;15.78;8.70;;;;;;;29.24;75.49;99667.89;1655417;85;21623;-71
2022/07/10 02:54:25;;;;;;;12.20;9.08;;;;;;;29.33;74.98;99662.62;1656285;86;21090;-71
2022/07/10 02:56:53;;;;;;;15.43;9.75;;;;;;;29.35;74.49;99658.45;1653144;85;21074;-73
2022/07/10 02:59:20;;;;;;;14.98;9.53;;;;;;;29.54;74.00;99659.36;1653866;85;21085;-72
2022/07/10 03:01:47;;;;;;;14.33;8.95;;;;;;;29.71;73.61;99657.07;1654407;85;21059;-72
2022/07/10 03:04:15;;;;;;;19.35;10.48;;;;;;;29.80;73.09;99652.31;1657936;85;21058;-71
2022/07/10 03:06:44;;;;;;;13.80;10.50;;;;;;;29.67;73.12;99660.63;1658189;86;21064;-72
2022/07/10 03:09:11;;;;;;;12.00;10.40;;;;;;;29.89;72.43;99655.82;1656134;86;21091;-71
2022/07/10 03:11:39;;;;;;;13.43;10.55;;;;;;;30.07;71.92;99661.72;1652611;86;21016;-71
2022/07/10 03:14:07;;;;;;;11.73;10.53;;;;;;;30.03;72.18;99665.83;1655864;85;21066;-72
2022/07/10 03:16:35;;;;;;;12.00;9.85;;;;;;;30.07;72.23;99674.98;1660603;85;22352;-71
2022/07/10 03:19:03;;;;;;;12.50;9.60;;;;;;;30.28;71.76;99676.97;1662110;85;21047;-71
2022/07/10 03:21:30;;;;;;;10.32;8.88;;;;;;;30.40;71.63;99683.22;1657912;85;22738;-72
2022/07/10 03:23:58;;;;;;;13.68;9.35;;;;;;;30.43;71.45;99684.62;1657853;85;21036;-72
2022/07/10 03:26:25;;;;;;;11.73;8.53;;;;;;;30.65;70.99;99677.06;1653412;86;21123;-71
2022/07/10 03:28:52;;;;;;;14.25;9.23;;;;;;;30.42;71.80;99680.36;1655572;85;21063;-72
2022/07/10 03:31:19;;;;;;;14.90;9.48;;;;;;;30.27;71.91;99684.62;1656627;85;21095;-71
2022/07/10 03:33:47;;;;;;;12.65;8.90;;;;;;;30.13;72.35;99685.23;1652708;86;21479;-71
2022/07/10 03:36:14;;;;;;;11.83;9.28;;;;;;;30.13;72.14;99679.43;1658126;85;21059;-71
2022/07/10 03:38:45;;;;;;;14.18;10.08;;;;;;;30.01;72.77;99679.83;1658221;85;21362;-71
2022/07/10 03:41:13;;;;;;;17.27;10.90;;;;;;;30.09;72.72;99686.20;1659321;85;21554;-72
2022/07/10 03:43:40;;;;;;;13.08;10.13;;;;;;;30.17;71.75;99677.13;1652653;85;21055;-72
2022/07/10 03:46:07;;;;;;;14.95;10.32;;;;;;;30.38;71.45;99679.17;1659329;85;22694;-71
2022/07/10 03:48:34;;;;;;;14.28;10.68;;;;;;;30.54;70.49;99683.92;1655458;85;21043;-71
2022/07/10 03:51:02;;;;;;;13.68;11.33;;;;;;;30.39;70.48;99677.59;1652925;87;21520;-71
2022/07/10 03:53:29;;;;;;;12.28;9.40;;;;;;;30.54;68.94;99674.10;1656090;85;21043;-71
2022/07/10 03:55:56;;;;;;;11.75;9.25;;;;;;;30.55;68.45;99682.34;1658072;85;21086;-71
2022/07/10 03:58:23;;;;;;;12.05;8.65;;;;;;;30.81;67.42;99675.68;1655863;85;21571;-71
2022/07/10 04:00:50;;;;;;;10.10;8.13;;;;;;;31.02;66.76;99676.58;1657908;86;21088;-71
2022/07/10 04:03:19;;;;;;;9.00;8.10;;;;;;;30.78;66.48;99681.42;1654870;85;21048;-71
2022/07/10 04:05:46;;;;;;;14.28;8.45;;;;;;;30.91;65.75;99679.47;1654527;85;21071;-71
2022/07/10 04:08:15;;;;;;;11.40;8.25;;;;;;;30.69;66.54;99681.70;1659335;85;21202;-71
2022/07/10 04:10:43;;;;;;;12.70;7.87;;;;;;;31.08;66.60;99687.69;1654833;85;21040;-71
2022/07/10 04:13:10;;;;;;;8.95;8.05;;;;;;;31.33;65.58;99696.87;1656784;85;21020;-71
2022/07/10 04:15:37;;;;;;;9.00;8.03;;;;;;;30.92;66.56;99687.75;1652869;86;21071;-71
2022/07/10 04:18:04;;;;;;;8.98;8.08;;;;;;;31.05;66.45;99693.95;1651491;86;21645;-71
2022/07/10 04:20:33;;;;;;;11.80;7.90;;;;;;;30.68;68.28;99691.25;1653540;85;21146;-71
2022/07/10 04:23:01;;;;;;;11.10;7.72;;;;;;;30.62;67.96;99695.59;1658103;85;21055;-71
2022/07/10 04:25:30;;;;;;;10.65;8.08;;;;;;;31.13;66.59;99691.00;1672522;85;21216;-71
2022/07/10 04:27:57;;;;;;;11.45;7.62;;;;;;;30.75;66.71;99689.33;1661255;85;21082;-71
2022/07/10 04:30:25;;;;;;;9.73;7.92;;;;;;;30.57;66.82;99691.44;1656646;86;21063;-71
2022/07/10 04:32:54;;;;;;;12.85;7.35;;;;;;;31.23;65.28;99687.30;1675336;85;21061;-71
2022/07/10 04:35:21;;;;;;;10.95;7.35;;;;;;;31.59;64.41;99686.14;1655702;85;21044;-71
2022/07/10 04:37:48;;;;;;;11.53;7.45;;;;;;;31.37;63.02;99695.92;1659207;85;21023;-71
2022/07/10 04:40:15;;;;;;;12.47;7.50;;;;;;;31.57;62.59;99677.08;1655555;85;21004;-71
2022/07/10 04:42:42;;;;;;;13.48;7.78;;;;;;;31.66;61.98;99674.38;1659326;85;21039;-71
2022/07/10 04:45:11;;;;;;;11.25;7.53;;;;;;;31.66;61.98;99674.38;1655651;85;21024;-71
2022/07/10 04:47:38;;;;;;;9.85;7.85;;;;;;;31.46;62.47;99683.95;1655034;85;21519;-71
2022/07/10 04:50:07;;;;;;;11.40;7.40;;;;;;;31.58;62.26;99691.98;1654211;85;21059;-71
2022/07/10 04:52:34;;;;;;;13.32;7.15;;;;;;;31.79;60.86;99691.19;1651188;85;21514;-72
2022/07/10 04:55:01;;;;;;;10.35;7.60;;;;;;;31.64;61.40;99691.08;1660347;85;21031;-71
2022/07/10 04:57:29;;;;;;;12.45;7.40;;;;;;;31.38;61.62;99690.88;1653264;86;21135;-71
2022/07/10 04:59:57;;;;;;;12.53;7.30;;;;;;;31.24;61.16;99679.59;1656167;85;21118;-71
2022/07/10 05:02:25;;;;;;;10.63;7.17;;;;;;;31.39;61.94;99683.70;1655103;85;21076;-71
2022/07/10 05:04:55;;;;;;;8.25;7.40;;;;;;;31.44;62.32;99678.05;1657611;85;21035;-71
2022/07/10 05:07:23;;;;;;;9.45;7.25;;;;;;;31.64;61.38;99675.12;1654258;85;21173;-71
2022/07/10 05:09:51;;;;;;;9.58;7.70;;;;;;;31.52;61.42;99663.63;1656511;85;21043;-71
2022/07/10 05:12:18;;;;;;;10.10;7.35;;;;;;;31.51;61.53;99652.70;1656770;85;21187;-70
2022/07/10 05:14:46;;;;;;;10.23;7.42;;;;;;;31.57;61.41;99647.81;1654925;86;21043;-71
2022/07/10 05:17:13;;;;;;;11.35;7.30;;;;;;;31.72;60.91;99637.55;1652497;85;21080;-71
2022/07/10 05:19:41;;;;;;;8.45;7.55;;;;;;;31.38;61.68;99628.91;1655927;86;21047;-70
2022/07/10 05:22:09;;;;;;;12.40;7.45;;;;;;;31.53;61.81;99618.71;1658717;85;21171;-71
2022/07/10 05:24:37;;;;;;;8.28;7.17;;;;;;;31.51;62.08;99611.48;1655383;85;21031;-71
2022/07/10 05:27:05;;;;;;;9.43;7.42;;;;;;;32.09;61.20;99602.78;1666484;85;21039;-71
2022/07/10 05:29:32;;;;;;;11.53;8.35;;;;;;;31.48;62.09;99607.92;1657242;85;21083;-72
2022/07/10 05:32:00;;;;;;;9.80;7.20;;;;;;;30.85;63.97;99615.75;1656751;85;21054;-71
2022/07/10 05:34:27;;;;;;;17.17;8.03;;;;;;;31.98;62.24;99624.06;1652824;86;21117;-68
2022/07/10 05:36:54;;;;;;;12.85;8.30;;;;;;;32.16;61.92;99636.47;1659677;85;21551;-70
2022/07/10 05:39:25;;;;;;;8.23;7.42;;;;;;;32.18;61.92;99640.55;1657211;84;21523;-71
2022/07/10 05:41:51;;;;;;;11.57;7.53;;;;;;;32.73;61.10;99642.85;1654348;85;21051;-70
2022/07/10 05:44:19;;;;;;;12.07;8.35;;;;;;;32.97;60.56;99641.97;1652109;86;21083;-70
2022/07/10 05:46:47;;;;;;;11.22;8.18;;;;;;;32.55;60.69;99639.53;1654471;85;21535;-71
2022/07/10 05:49:14;;;;;;;12.73;8.45;;;;;;;32.57;60.78;99641.44;1654593;86;21052;-70
2022/07/10 05:51:42;;;;;;;11.75;8.60;;;;;;;32.08;62.54;99637.65;1660716;85;21103;-71
2022/07/10 05:54:10;;;;;;;10.63;8.70;;;;;;;32.55;61.96;99634.20;1659234;85;21110;-70
2022/07/10 05:56:38;;;;;;;12.45;9.65;;;;;;;31.79;63.32;99633.97;1656415;85;21142;-70
2022/07/10 05:59:05;;;;;;;12.30;9.30;;;;;;;32.25;63.02;99629.77;1661051;85;21134;-71
2022/07/10 06:01:32;;;;;;;11.20;8.95;;;;;;;32.00;64.56;99635.33;1657689;85;21058;-70
2022/07/10 06:04:00;;;;;;;12.80;9.53;;;;;;;31.90;64.71;99626.53;1658559;85;21043;-71
2022/07/10 06:15:18;;;;;;;11.15;8.73;;;;;;;32.96;60.69;99621.71;1768910;80;21535;-70
2022/07/10 06:17:45;;;;;;;10.08;8.80;;;;;;;32.44;61.50;99609.97;1778060;80;21530;-69
2022/07/10 06:20:13;;;;;;;11.35;8.48;;;;;;;32.32;61.59;99601.98;1773987;80;21001;-70
2022/07/10 06:22:40;;;;;;;11.03;8.23;;;;;;;32.40;61.07;99604.83;1768805;80;21115;-70
2022/07/10 06:25:11;;;;;;;11.53;8.18;;;;;;;32.64;60.33;99602.14;1775386;80;21044;-70
2022/07/10 06:27:39;;;;;;;10.95;8.43;;;;;;;32.49;60.74;99593.28;1781059;80;21596;-70
2022/07/10 06:30:08;;;;;;;12.03;8.80;;;;;;;32.73;60.39;99600.21;1764309;81;21566;-70
2022/07/10 06:32:36;;;;;;;10.32;8.53;;;;;;;33.18;59.91;99592.03;1781314;80;21070;-70
2022/07/10 06:35:05;;;;;;;10.13;8.48;;;;;;;33.23;59.87;99585.44;1772492;80;21118;-71
2022/07/10 06:37:32;;;;;;;11.12;9.00;;;;;;;32.71;60.05;99578.84;1772977;80;21490;-70
2022/07/10 06:40:00;;;;;;;12.15;9.00;;;;;;;32.34;60.67;99571.94;1764220;80;21054;-70
2022/07/10 06:42:27;;;;;;;15.20;9.50;;;;;;;33.19;60.07;99564.30;1738950;80;21053;-70
2022/07/10 06:44:57;;;;;;;14.23;9.30;;;;;;;32.56;60.49;99555.34;1737020;81;21765;-71
2022/07/10 06:50:10;;;;;;;15.80;10.40;;;;;;;32.24;60.57;99553.58;1748225;80;21517;-70
2022/07/10 06:52:38;;;;;;;15.13;11.97;;;;;;;32.77;60.55;99550.41;1748752;80;21032;-70
2022/07/10 06:55:08;;;;;;;13.70;11.15;;;;;;;33.26;57.54;99562.84;1740049;81;21045;-70
2022/07/10 06:57:35;;;;;;;16.37;11.85;;;;;;;33.62;56.22;99558.94;1743515;81;21007;-69
2022/07/10 07:00:05;;;;;;;19.25;13.30;;;;;;;33.82;55.01;99561.63;1664811;83;21093;-72
2022/07/10 07:02:32;;;;;;;19.12;13.30;;;;;;;33.71;55.91;99561.47;1754718;80;21005;-70
2022/07/10 07:05:00;;;;;;;18.60;13.05;;;;;;;33.60;55.72;99556.17;1750172;80;21004;-70
2022/07/10 07:07:27;;;;;;;14.63;12.10;;;;;;;33.56;55.28;99559.05;1759548;80;21051;-70
2022/07/10 07:09:56;;;;;;;19.05;12.35;;;;;;;33.63;55.04;99559.20;1750321;80;21013;-70
2022/07/10 07:12:23;;;;;;;18.17;11.40;;;;;;;33.18;56.05;99569.36;1743345;80;21496;-71
2022/07/10 07:14:50;;;;;;;17.90;10.78;;;;;;;33.28;55.79;99563.41;1752832;80;20980;-71
2022/07/10 07:17:33;;;;;;;14.63;11.00;;;;;;;33.56;55.35;99553.20;1751801;80;21183;-69
2022/07/10 07:25:28;;;;;;;18.37;10.90;;;;;;;33.44;54.58;99557.81;1746449;80;20973;-71
2022/07/10 07:27:58;;;;;;;14.10;9.85;;;;;;;33.81;54.34;99562.69;1745068;81;21009;-70
2022/07/10 07:30:25;;;;;;;17.23;9.85;;;;;;;34.18;53.23;99576.34;1747730;80;21044;-70
2022/07/10 07:32:52;;;;;;;11.75;9.20;;;;;;;34.02;53.70;99569.13;1761598;80;21063;-70
2022/07/10 07:35:19;;;;;;;15.00;9.90;;;;;;;33.75;53.76;99580.48;1752186;80;21567;-71
2022/07/10 07:37:51;;;;;;;14.30;9.38;;;;;;;33.77;54.19;99578.38;1746239;80;21008;-72
2022/07/10 07:40:23;;;;;;;9.73;8.73;;;;;;;33.57;54.26;99592.70;1762209;80;21059;-71
2022/07/10 07:42:53;;;;;;;13.05;9.30;;;;;;;33.51;54.20;99603.80;1756667;80;20972;-70
2022/07/10 07:45:21;;;;;;;12.90;9.33;;;;;;;33.57;54.29;99605.52;1753194;80;20999;-70
2022/07/10 07:47:59;;;;;;;11.80;9.60;;;;;;;33.66;53.84;99615.28;1752504;80;21523;-70
2022/07/10 07:50:33;;;;;;;18.17;10.13;;;;;;;33.64;54.82;99609.38;1749347;81;21004;-70
2022/07/10 07:53:01;;;;;;;;;;;;;;;33.81;54.65;99610.74;1756300;81;21063;-71
2022/07/10 07:55:31;;;;;;;11.10;9.13;;;;;;;34.15;53.96;99612.90;1750502;81;20412;-72
2022/07/10 07:57:58;;;;;;;15.23;8.75;;;;;;;34.65;52.85;99605.83;1747991;81;21043;-71
2022/07/10 08:00:28;;;;;;;13.40;8.78;;;;;;;34.51;52.65;99620.88;1750039;81;21035;-71
2022/07/10 08:02:57;;;;;;;12.58;9.23;;;;;;;34.59;52.54;99622.83;1749283;81;21070;-71
2022/07/10 08:05:25;;;;;;;11.95;8.38;;;;;;;34.68;51.53;99609.36;1735520;81;21598;-72
2022/07/10 08:07:56;;;;;;;13.10;9.03;;;;;;;34.56;52.04;99617.46;1751874;81;21091;-71
2022/07/10 08:10:26;;;;;;;11.30;8.43;;;;;;;35.13;50.83;99622.97;1752037;81;21047;-71
2022/07/10 08:12:55;;;;;;;12.18;8.60;;;;;;;35.16;50.13;99629.20;1749287;81;21020;-72
2022/07/10 08:15:23;;;;;;;14.53;8.73;;;;;;;35.30;50.27;99627.73;1750500;81;21066;-71
2022/07/10 08:17:54;;;;;;;13.10;8.68;;;;;;;35.76;49.64;99634.59;1748033;81;21510;-71
2022/07/10 08:20:24;;;;;;;15.32;9.00;;;;;;;36.27;48.68;99645.69;1763895;80;21048;-71
2022/07/10 08:22:53;;;;;;;12.30;8.93;;;;;;;36.44;46.98;99633.48;1743447;80;21017;-72
2022/07/10 08:25:21;;;;;;;14.40;8.80;;;;;;;37.07;46.77;99644.22;1744835;80;21041;-71
2022/07/10 08:27:50;;;;;;;16.20;9.18;;;;;;;37.11;46.73;99652.04;1755469;80;21020;-72
2022/07/10 08:30:17;;;;;;;17.37;8.75;;;;;;;36.26;47.69;99646.77;1692460;83;21362;-71
2022/07/10 08:32:47;;;;;;;14.45;9.60;;;;;;;36.32;47.12;99634.19;1688336;83;21057;-72
2022/07/10 08:35:14;;;;;;;14.23;9.35;;;;;;;35.93;47.61;99638.45;1743151;80;21468;-71
2022/07/10 08:37:49;;;;;;;14.25;9.43;;;;;;;36.24;45.78;99643.55;1747798;80;21068;-72
2022/07/10 08:40:16;;;;;;;14.33;9.33;;;;;;;36.61;44.78;99645.34;1741423;81;21059;-71
2022/07/10 08:42:45;;;;;;;15.68;8.68;;;;;;;37.00;45.01;99655.17;1734935;80;21035;-72
2022/07/10 08:45:13;;;;;;;15.38;9.13;;;;;;;36.65;44.52;99659.33;1746685;80;21024;-71
2022/07/10 08:47:42;;;;;;;12.55;9.20;;;;;;;36.32;44.67;99651.09;1741468;80;20953;-72
2022/07/10 08:50:22;;;;;;;14.83;10.10;;;;;;;36.36;44.20;99645.49;1749120;80;21027;-71
2022/07/10 08:53:24;;;;;;;13.58;9.75;;;;;;;36.63;44.58;99639.22;1746718;80;21004;-70
2022/07/10 08:55:51;;;;;;;14.73;10.05;;;;;;;36.06;45.22;99632.14;1735954;81;21029;-70
2022/07/10 08:58:20;;;;;;;15.32;10.40;;;;;;;36.77;44.91;99626.94;1739239;81;21000;-70
2022/07/10 09:00:47;;;;;;;16.32;10.45;;;;;;;36.26;44.70;99617.30;1731975;81;21099;-71
2022/07/10 09:03:14;;;;;;;17.27;10.35;;;;;;;35.94;45.86;99610.09;1739739;82;21096;-71
2022/07/10 09:05:42;;;;;;;15.90;10.58;;;;;;;35.89;45.90;99600.69;1735257;82;21008;-71
2022/07/10 09:08:32;;;;;;;13.72;11.20;;;;;;;35.72;46.54;99591.45;1741135;82;21106;-70
2022/07/10 09:11:16;;;;;;;14.30;11.40;;;;;;;35.72;46.60;99583.41;1729035;82;21068;-71
2022/07/10 09:13:53;;;;;;;17.07;11.88;;;;;;;35.24;47.66;99577.08;1728714;82;21045;-69
2022/07/10 09:16:25;;;;;;;16.75;12.07;;;;;;;35.83;47.17;99577.08;1727260;82;21519;-71
2022/07/10 09:18:53;;;;;;;18.00;12.78;;;;;;;35.41;47.75;99579.66;1721300;82;21068;-72
2022/07/10 09:21:21;;;;;;;19.32;12.25;;;;;;;35.69;47.61;99571.36;1751698;82;21048;-72
2022/07/10 09:23:49;;;;;;;18.17;13.03;;;;;;;35.10;48.71;99563.30;1743462;82;21059;-72
2022/07/10 09:26:16;;;;;;;17.87;12.95;;;;;;;35.94;47.27;99572.59;1722215;82;20993;-72
2022/07/10 09:28:43;;;;;;;21.65;13.05;;;;;;;36.05;47.15;99569.44;1737500;82;21044;-72
2022/07/10 09:31:11;;;;;;;17.98;13.05;;;;;;;35.99;46.10;99576.66;1740763;82;21048;-72
2022/07/10 09:33:40;;;;;;;18.37;12.43;;;;;;;36.06;45.47;99572.40;1737473;82;21051;-71
2022/07/10 09:36:11;;;;;;;19.30;11.95;;;;;;;36.01;45.51;99573.70;1739450;82;21087;-71
2022/07/10 09:38:51;;;;;;;19.10;11.63;;;;;;;36.30;45.53;99568.81;1728205;82;21134;-70
2022/07/10 09:41:30;;;;;;;16.52;11.12;;;;;;;36.93;45.17;99571.47;1725219;82;21024;-71
2022/07/10 09:44:21;;;;;;;16.10;10.43;;;;;;;37.23;44.45;99565.38;1738169;81;21013;-72
2022/07/10 09:47:28;;;;;;;17.90;10.75;;;;;;;37.58;44.45;99569.17;1630247;86;21071;-71
2022/07/10 09:53:23;;;;;;;23.45;13.15;;;;;;;37.82;43.82;99572.65;1649944;86;21033;-71
2022/07/10 09:58:58;;;;;;;13.68;8.80;;;;;;;36.90;43.62;99569.31;1655148;86;21061;-71
2022/07/10 10:01:30;;;;;;;16.93;7.58;;;;;;;35.99;44.61;99580.67;1616363;87;21547;-70
2022/07/10 10:04:53;;;;;;;12.70;8.43;;;;;;;35.78;44.67;99571.67;1688313;82;21036;-70
2022/07/10 10:07:20;;;;;;;11.90;7.90;;;;;;;36.90;43.38;99573.33;1746380;82;21633;-72
2022/07/10 10:10:16;;;;;;;12.37;8.93;;;;;;;36.22;43.61;99573.33;1748117;82;21078;-71
2022/07/10 10:13:02;;;;;;;15.60;11.28;;;;;;;36.29;42.56;99564.51;1743888;82;21004;-72
2022/07/10 10:15:31;;;;;;;14.78;10.75;;;;;;;35.80;42.60;99569.55;1738543;82;21090;-72
2022/07/10 10:18:19;;;;;;;18.48;10.98;;;;;;;35.67;43.55;99564.11;1749117;82;21078;-71
2022/07/10 10:20:48;;;;;;;17.07;10.23;;;;;;;35.68;44.30;99566.25;1740867;82;21316;-72
2022/07/10 10:23:22;;;;;;;12.70;10.95;;;;;;;35.29;44.28;99557.88;1728395;82;21012;-71
2022/07/10 10:25:54;;;;;;;15.10;10.93;;;;;;;35.28;44.64;99560.80;1723686;82;21518;-71
2022/07/10 10:28:23;;;;;;;16.15;11.70;;;;;;;35.67;44.15;99554.74;1738923;82;21067;-71
2022/07/10 10:30:55;;;;;;;20.23;10.95;;;;;;;35.57;44.50;99562.67;1724881;82;21608;-70
2022/07/10 10:33:42;;;;;;;13.48;10.85;;;;;;;35.74;44.41;99565.22;1747693;82;21000;-71
2022/07/10 10:36:13;;;;;;;13.50;10.90;;;;;;;35.88;44.63;99565.59;1745850;82;21043;-72
2022/07/10 10:38:58;;;;;;;14.60;11.08;;;;;;;36.16;44.76;99557.75;1745024;82;21095;-71
2022/07/10 10:41:28;;;;;;;17.70;13.18;;;;;;;35.58;45.41;99565.60;1730829;82;21118;-72
2022/07/10 10:44:16;;;;;;;18.12;12.15;;;;;;;35.55;45.92;99559.44;1739252;82;21032;-72
2022/07/10 10:46:56;;;;;;;18.35;13.30;;;;;;;35.81;45.53;99557.79;1729236;82;20997;-72
2022/07/10 10:49:25;;;;;;;20.82;12.85;;;;;;;36.19;44.99;99559.09;1733846;81;21514;-72
2022/07/10 10:52:02;;;;;;;17.55;12.47;;;;;;;36.29;45.18;99559.94;1727890;82;21041;-71
2022/07/10 10:54:31;;;;;;;17.75;13.25;;;;;;;36.89;45.12;99556.44;1731670;82;21024;-72
2022/07/10 10:57:16;;;;;;;16.67;12.40;;;;;;;36.65;44.68;99554.77;1743494;82;21070;-71
2022/07/10 10:59:52;;;;;;;18.45;12.45;;;;;;;36.66;45.27;99553.71;1738986;82;21503;-69
2022/07/10 11:02:34;;;;;;;17.60;12.18;;;;;;;37.09;44.58;99545.48;1741037;82;21028;-70
2022/07/10 11:05:22;;;;;;;19.35;13.80;;;;;;;36.57;45.14;99548.54;1732801;82;21056;-70
2022/07/10 11:08:04;;;;;;;17.42;13.88;;;;;;;37.01;44.99;99548.70;1747072;82;21076;-71
2022/07/10 11:10:36;;;;;;;22.32;15.13;;;;;;;36.96;44.95;99554.84;1740626;82;21036;-72
2022/07/10 11:13:16;;;;;;;21.15;14.55;;;;;;;36.39;44.94;99557.05;1729704;82;21496;-71
2022/07/10 11:15:49;;;;;;;19.98;14.15;;;;;;;36.69;44.79;99565.78;1738723;82;21062;-70
2022/07/10 11:18:28;;;;;;;20.82;13.30;;;;;;;36.19;46.05;99561.78;1729024;82;21066;-71
2022/07/10 11:20:54;;;;;;;18.37;13.65;;;;;;;36.34;45.94;99552.48;1734843;82;21047;-71
2022/07/10 11:23:58;;;;;;;19.27;12.73;;;;;;;37.05;45.65;99553.25;1742620;81;21042;-71
2022/07/10 11:26:37;;;;;;;18.27;13.58;;;;;;;37.03;45.69;99557.28;1740335;82;21082;-71
2022/07/10 11:29:05;;;;;;;16.95;13.08;;;;;;;36.42;46.60;99560.56;1725458;82;21060;-71
2022/07/10 11:31:44;;;;;;;19.57;13.25;;;;;;;36.72;46.32;99562.55;1744751;82;21027;-71
2022/07/10 11:34:08;;;;;;;20.48;12.98;;;;;;;36.14;46.59;99567.89;1751525;82;21032;-70
2022/07/10 11:36:39;;;;;;;20.72;13.22;;;;;;;35.59;47.83;99558.41;1726409;82;21602;-71
2022/07/10 11:39:08;;;;;;;22.07;13.95;;;;;;;35.74;47.91;99563.88;1734558;82;21008;-71
2022/07/10 11:41:46;;;;;;;20.15;13.72;;;;;;;35.82;47.81;99559.92;1728455;82;21455;-71
2022/07/10 11:44:20;;;;;;;19.23;13.70;;;;;;;36.59;47.00;99550.42;1747294;82;21507;-71
2022/07/10 11:46:49;;;;;;;21.45;12.37;;;;;;;36.65;46.71;99557.44;1722950;82;21054;-71
2022/07/10 11:49:17;;;;;;;15.18;11.88;;;;;;;35.85;47.30;99550.85;1736230;82;21067;-71
2022/07/10 11:51:44;;;;;;;18.73;12.30;;;;;;;35.88;48.59;99545.50;1736161;82;21023;-71
2022/07/10 11:54:18;;;;;;;17.85;11.53;;;;;;;37.26;45.89;99545.25;1733677;82;21041;-71
2022/07/10 11:56:52;;;;;;;15.88;12.60;;;;;;;37.05;45.83;99541.18;1728283;82;21056;-71
2022/07/10 11:59:25;;;;;;;14.30;11.38;;;;;;;36.88;45.88;99538.75;1718728;82;21597;-71
2022/07/10 12:01:54;;;;;;;;;;;;;;;36.80;46.27;99544.63;1730134;82;21012;-71